Time;durP1;ratioP1;P1;durP2;ratioP2;P2;SDS_P1;SDS_P2;PMS_P1;PMS_P2;Temp;Humidity;BMP_temperature;BMP_pressure;BME280_temperature;BME280_humidity;BME280_pressure;Samples;Min_cycle;Max_cycle;Signal;HPM_P1;HPM_P2
2023/12/10 00:03:40;;;;;;;10.32;3.72;;;;;;;0.84;100.00;100270.47;10452868;28;20129;-68
2023/12/10 00:08:41;;;;;;;10.32;4.63;;;;;;;1.51;100.00;100384.38;10453954;28;20136;-68
2023/12/10 00:13:41;;;;;;;8.02;2.90;;;;;;;1.47;100.00;100389.00;10453709;28;20036;-68
2023/12/10 00:18:42;;;;;;;7.25;2.70;;;;;;;1.07;100.00;100338.63;10452823;28;20037;-68
2023/12/10 00:23:43;;;;;;;6.95;2.60;;;;;;;0.75;100.00;100281.56;10453333;28;20065;-68
2023/12/10 00:28:44;;;;;;;8.05;2.70;;;;;;;1.21;100.00;100375.13;10455009;28;20420;-68
2023/12/10 00:33:45;;;;;;;7.70;2.40;;;;;;;1.06;100.00;100363.97;10460717;28;20048;-68
2023/12/10 00:38:46;;;;;;;6.43;2.80;;;;;;;1.21;100.00;100405.69;10461037;28;20048;-68
2023/12/10 00:43:47;;;;;;;12.35;2.92;;;;;;;0.93;100.00;100347.44;10461610;28;20041;-68
2023/12/10 00:48:48;;;;;;;7.82;2.78;;;;;;;0.90;100.00;100334.59;10460283;28;20072;-68
2023/12/10 00:53:49;;;;;;;6.75;2.47;;;;;;;1.13;100.00;100401.00;10460683;28;20029;-68
2023/12/10 00:58:50;;;;;;;9.60;3.15;;;;;;;0.72;100.00;100338.44;10459484;28;20055;-68
2023/12/10 01:03:51;;;;;;;7.40;2.38;;;;;;;1.07;100.00;100396.19;10460090;28;20509;-68
2023/12/10 01:08:52;;;;;;;5.93;2.70;;;;;;;0.79;100.00;100364.09;10459471;28;20045;-68
2023/12/10 01:13:53;;;;;;;8.30;3.15;;;;;;;1.05;100.00;100398.09;10459890;28;20037;-67
2023/12/10 01:18:53;;;;;;;6.90;2.20;;;;;;;1.07;100.00;100396.19;10459849;28;20049;-68
2023/12/10 01:23:54;;;;;;;10.25;2.35;;;;;;;0.46;100.00;100312.31;10458870;28;20052;-67
2023/12/10 01:28:55;;;;;;;14.43;4.78;;;;;;;1.01;100.00;100407.91;10459830;28;20493;-68
2023/12/10 01:33:56;;;;;;;9.27;3.53;;;;;;;0.86;100.00;100391.47;10458969;28;20041;-68
2023/12/10 01:38:57;;;;;;;13.18;4.63;;;;;;;0.91;100.00;100412.94;10458422;28;20049;-68
2023/12/10 01:43:58;;;;;;;16.38;6.15;;;;;;;0.92;100.00;100413.75;10458400;28;20040;-68
2023/12/10 01:48:59;;;;;;;9.05;2.88;;;;;;;0.88;100.00;100405.28;10458308;28;20043;-68
2023/12/10 01:54:01;;;;;;;9.13;4.22;;;;;;;0.91;100.00;100407.69;10457354;28;20041;-68
2023/12/10 01:59:02;;;;;;;15.70;2.50;;;;;;;0.91;100.00;100407.69;10457965;28;20080;-68
2023/12/10 02:04:05;;;;;;;18.90;2.28;;;;;;;0.75;100.00;100396.63;10457744;28;20064;-68
2023/12/10 02:09:10;;;;;;;12.43;1.98;;;;;;;0.89;100.00;100414.81;10457215;28;20044;-68
2023/12/10 02:14:11;;;;;;;5.75;2.03;;;;;;;0.38;100.00;100362.47;10456905;28;20065;-68
2023/12/10 02:19:11;;;;;;;12.35;2.10;;;;;;;0.29;100.00;100343.97;10457192;28;20077;-70
2023/12/10 02:24:20;;;;;;;7.53;1.88;;;;;;;0.68;100.00;100405.81;10456061;28;20056;-70
2023/12/10 02:29:22;;;;;;;7.25;2.33;;;;;;;0.63;100.00;100407.91;10454890;28;20040;-70
2023/12/10 02:34:24;;;;;;;11.63;2.22;;;;;;;0.64;100.00;100407.78;10456130;28;20170;-70
2023/12/10 02:39:25;;;;;;;14.38;2.30;;;;;;;0.41;100.00;100398.03;10455844;28;20052;-70
2023/12/10 02:44:26;;;;;;;7.72;2.00;;;;;;;0.43;100.00;100415.28;10456577;28;20407;-70
2023/12/10 02:49:27;;;;;;;3.25;1.48;;;;;;;0.48;100.00;100432.41;10456615;28;20377;-68
2023/12/10 02:54:27;;;;;;;10.30;1.60;;;;;;;0.42;100.00;100431.91;10454398;28;20130;-67
2023/12/10 02:59:28;;;;;;;7.88;1.95;;;;;;;-0.03;100.00;100375.63;10456001;28;20051;-70
2023/12/10 03:04:29;;;;;;;6.25;1.92;;;;;;;0.18;100.00;100430.88;10456371;28;20374;-70
2023/12/10 03:09:30;;;;;;;3.58;1.52;;;;;;;0.30;100.00;100447.53;10455336;28;20123;-70
2023/12/10 03:14:31;;;;;;;7.97;2.10;;;;;;;0.25;100.00;100450.47;10454479;28;20040;-70
2023/12/10 03:19:32;;;;;;;5.03;2.00;;;;;;;0.16;100.00;100436.22;10455208;28;20098;-70
2023/12/10 03:24:33;;;;;;;4.72;1.40;;;;;;;-0.35;100.00;100359.47;10454392;28;20428;-70
2023/12/10 03:29:34;;;;;;;2.83;1.30;;;;;;;0.15;100.00;100454.59;10454729;28;20053;-70
2023/12/10 03:34:35;;;;;;;3.22;1.60;;;;;;;0.07;100.00;100449.88;10455133;28;20499;-70
2023/12/10 03:39:35;;;;;;;6.43;1.77;;;;;;;0.13;100.00;100464.31;10453887;28;20416;-70
2023/12/10 03:44:36;;;;;;;6.95;1.27;;;;;;;0.05;100.00;100464.78;10453735;28;20045;-68
2023/12/10 03:49:37;;;;;;;1.90;0.80;;;;;;;0.16;100.00;100483.25;10454998;28;20459;-69
2023/12/10 03:54:38;;;;;;;2.47;1.10;;;;;;;0.14;100.00;100498.16;10453557;28;20043;-67
2023/12/10 03:59:39;;;;;;;6.35;1.35;;;;;;;0.14;100.00;100492.94;10453993;28;20049;-68
2023/12/10 04:04:39;;;;;;;1.88;0.90;;;;;;;0.21;100.00;100499.47;10458212;28;20044;-68
2023/12/10 04:09:41;;;;;;;4.00;1.27;;;;;;;-0.19;100.00;100438.47;10463086;28;20496;-68
2023/12/10 04:14:46;;;;;;;2.78;1.05;;;;;;;-0.21;100.00;100447.31;10461601;28;20479;-68
2023/12/10 04:19:47;;;;;;;2.85;0.93;;;;;;;-0.04;100.00;100465.38;10461095;28;20068;-67
2023/12/10 04:24:48;;;;;;;3.95;1.35;;;;;;;0.48;100.00;100539.59;10446404;28;20057;-68
2023/12/10 04:29:49;;;;;;;5.75;1.42;;;;;;;0.35;100.00;100531.69;10461165;28;20086;-68
2023/12/10 04:34:50;;;;;;;10.65;2.50;;;;;;;-0.07;100.00;100500.34;10460859;28;20047;-68
2023/12/10 04:39:51;;;;;;;4.65;1.10;;;;;;;0.25;100.00;100551.53;10460546;28;20049;-68
2023/12/10 04:44:51;;;;;;;7.43;1.65;;;;;;;-0.03;100.00;100519.28;10460320;28;20128;-67
2023/12/10 04:49:54;;;;;;;7.82;1.38;;;;;;;0.15;100.00;100564.31;10460901;28;20037;-69
2023/12/10 04:54:55;;;;;;;4.20;1.13;;;;;;;0.10;100.00;100551.53;10458760;28;20102;-69
2023/12/10 04:59:55;;;;;;;8.02;1.60;;;;;;;0.09;100.00;100569.91;10455713;28;20053;-69
2023/12/10 05:04:56;;;;;;;4.75;1.75;;;;;;;0.08;100.00;100576.91;10424260;28;20148;-70
2023/12/10 05:09:57;;;;;;;4.82;1.33;;;;;;;0.01;100.00;100575.63;10418205;28;20037;-69
2023/12/10 05:14:58;;;;;;;3.35;1.30;;;;;;;-0.03;100.00;100598.47;10417716;28;20041;-69
2023/12/10 05:19:58;;;;;;;4.13;1.42;;;;;;;-0.27;100.00;100555.56;10418746;28;20080;-69
2023/12/10 05:24:59;;;;;;;3.25;1.05;;;;;;;-0.10;100.00;100597.16;10417963;28;20057;-70
2023/12/10 05:30:00;;;;;;;3.83;1.65;;;;;;;-0.13;100.00;100615.63;10417917;28;20081;-70
2023/12/10 05:35:02;;;;;;;4.38;1.75;;;;;;;-0.42;100.00;100573.00;10417595;28;20513;-69
2023/12/10 05:40:03;;;;;;;6.40;3.03;;;;;;;-0.08;100.00;100625.81;10416164;28;20041;-69
2023/12/10 05:45:04;;;;;;;11.45;4.07;;;;;;;-0.03;100.00;100632.44;10417450;28;20121;-69
2023/12/10 05:50:05;;;;;;;8.25;2.80;;;;;;;-0.40;100.00;100578.97;10416679;28;20120;-70
2023/12/10 05:55:06;;;;;;;3.05;1.27;;;;;;;-0.05;100.00;100625.63;10417583;28;20045;-70
2023/12/10 06:00:08;;;;;;;4.35;1.30;;;;;;;-0.06;100.00;100634.38;10416115;28;20041;-70
2023/12/10 06:05:09;;;;;;;5.40;1.10;;;;;;;0.04;100.00;100639.91;10424369;28;20044;-70
2023/12/10 06:10:09;;;;;;;8.35;1.00;;;;;;;-0.14;100.00;100598.28;10429581;28;20060;-69
2023/12/10 06:15:10;;;;;;;3.05;1.05;;;;;;;-0.07;100.00;100598.75;10415805;28;20045;-68
2023/12/10 06:20:11;;;;;;;2.65;1.33;;;;;;;0.20;100.00;100662.38;10428720;28;20048;-69
2023/12/10 06:25:12;;;;;;;4.47;1.52;;;;;;;0.23;100.00;100674.41;10438147;28;20060;-70
2023/12/10 06:30:13;;;;;;;1.85;0.80;;;;;;;0.28;100.00;100684.59;10432678;28;20041;-69
2023/12/10 06:35:14;;;;;;;1.83;0.70;;;;;;;0.32;100.00;100699.97;10415364;28;20140;-69
2023/12/10 06:40:15;;;;;;;3.22;1.70;;;;;;;0.31;100.00;100697.47;10420318;28;20132;-69
2023/12/10 06:45:17;;;;;;;6.28;1.48;;;;;;;-0.02;100.00;100657.63;10456766;28;20049;-68
2023/12/10 06:50:18;;;;;;;4.82;1.38;;;;;;;0.33;100.00;100727.81;10437264;28;20041;-67
2023/12/10 06:55:19;;;;;;;4.43;1.77;;;;;;;0.53;100.00;100736.19;10392063;28;20051;-69
2023/12/10 07:00:20;;;;;;;2.25;0.85;;;;;;;0.55;100.00;100736.94;10407302;28;20037;-68
2023/12/10 07:05:20;;;;;;;3.22;1.00;;;;;;;0.57;100.00;100738.53;10392528;28;20485;-68
2023/12/10 07:10:21;;;;;;;2.40;0.40;;;;;;;0.55;100.00;100744.78;10404376;28;20116;-68
2023/12/10 07:15:22;;;;;;;2.30;1.02;;;;;;;0.47;100.00;100723.50;10393042;28;20500;-67
2023/12/10 07:20:23;;;;;;;2.58;0.90;;;;;;;0.55;100.00;100744.78;10397177;28;20131;-68
2023/12/10 07:25:23;;;;;;;4.30;1.02;;;;;;;0.26;100.00;100689.91;10400242;28;20054;-67
2023/12/10 07:30:24;;;;;;;3.05;0.90;;;;;;;0.57;100.00;100741.16;10403256;28;20098;-69
2023/12/10 07:35:25;;;;;;;2.30;0.32;;;;;;;0.54;100.00;100749.19;10389836;28;20441;-68
2023/12/10 07:40:26;;;;;;;10.40;3.78;;;;;;;0.43;100.00;100744.59;10395712;28;20044;-68
2023/12/10 07:45:27;;;;;;;4.18;2.30;;;;;;;0.12;100.00;100701.19;10443543;28;20045;-67
2023/12/10 07:50:27;;;;;;;6.82;3.92;;;;;;;0.50;100.00;100752.06;10405436;28;20033;-69
2023/12/10 07:55:28;;;;;;;6.10;2.45;;;;;;;0.55;100.00;100761.31;10400840;28;20034;-69
2023/12/10 08:00:29;;;;;;;6.10;1.88;;;;;;;0.65;100.00;100769.41;10409391;28;20461;-68
2023/12/10 08:05:30;;;;;;;7.97;3.45;;;;;;;0.73;100.00;100766.34;10401658;28;20549;-68
2023/12/10 08:10:31;;;;;;;2.92;1.10;;;;;;;0.62;100.00;100767.00;10394520;28;20076;-68
2023/12/10 08:15:32;;;;;;;6.35;2.78;;;;;;;0.57;100.00;100776.88;10412451;28;20421;-68
2023/12/10 08:20:33;;;;;;;2.47;0.93;;;;;;;0.38;100.00;100746.63;10410864;28;20048;-69
2023/12/10 08:25:34;;;;;;;5.93;3.00;;;;;;;0.49;100.00;100774.75;10410922;28;20065;-69
2023/12/10 08:30:35;;;;;;;3.88;0.88;;;;;;;0.50;100.00;100760.72;10436225;28;20049;-69
2023/12/10 08:35:36;;;;;;;2.22;1.00;;;;;;;0.31;100.00;100724.44;10418353;28;20037;-70
2023/12/10 08:40:36;;;;;;;1.58;0.60;;;;;;;0.12;100.00;100697.72;10453553;28;20044;-69
2023/12/10 08:45:37;;;;;;;3.20;1.00;;;;;;;-0.01;100.00;100664.50;10447285;28;20041;-70
2023/12/10 08:50:38;;;;;;;17.23;7.03;;;;;;;-0.38;100.00;100597.16;10416294;28;20482;-70
2023/12/10 08:55:38;;;;;;;13.95;5.20;;;;;;;-0.11;100.00;100624.22;10419805;28;20044;-70
2023/12/10 09:00:39;;;;;;;6.20;2.60;;;;;;;-0.10;100.00;100573.66;10444376;28;20060;-70
2023/12/10 09:05:40;;;;;;;3.20;0.95;;;;;;;-0.25;100.00;100553.72;10460859;28;20040;-71
2023/12/10 09:10:41;;;;;;;2.10;0.77;;;;;;;-0.14;100.00;100629.63;10458306;28;20040;-69
2023/12/10 09:15:43;;;;;;;0.93;0.47;;;;;;;-0.02;100.00;100655.00;10453498;28;20128;-70
2023/12/10 09:20:44;;;;;;;4.75;0.43;;;;;;;-0.04;100.00;100664.69;10457229;28;20049;-69
2023/12/10 09:25:45;;;;;;;1.23;0.32;;;;;;;0.09;100.00;100671.78;10451750;28;20118;-68
2023/12/10 09:30:46;;;;;;;1.55;0.50;;;;;;;0.30;100.00;100708.84;10440909;28;20091;-69
2023/12/10 09:35:47;;;;;;;8.13;0.45;;;;;;;0.42;100.00;100716.78;10456218;28;20382;-69
2023/12/10 09:40:47;;;;;;;2.42;0.70;;;;;;;0.43;100.00;100718.47;10448122;28;20064;-69
2023/12/10 09:45:48;;;;;;;2.85;1.20;;;;;;;0.31;100.00;100687.00;10458092;28;20048;-70
2023/12/10 09:50:49;;;;;;;3.10;1.52;;;;;;;0.73;100.00;100756.72;10458173;28;20538;-68
2023/12/10 09:55:50;;;;;;;8.35;1.80;;;;;;;0.81;100.00;100745.81;10457738;28;20053;-69
2023/12/10 10:00:50;;;;;;;2.58;1.00;;;;;;;0.78;100.00;100745.97;10457363;28;20037;-70
2023/12/10 10:05:53;;;;;;;34.13;19.08;;;;;;;0.74;100.00;100761.00;10444513;28;20036;-69
2023/12/10 10:10:54;;;;;;;10.23;6.88;;;;;;;0.60;100.00;100777.56;10456719;28;20433;-68
2023/12/10 10:15:55;;;;;;;4.05;3.00;;;;;;;0.55;100.00;100787.44;10445684;28;20098;-68
2023/12/10 10:20:56;;;;;;;6.97;2.10;;;;;;;0.18;100.00;100718.25;10443826;28;20512;-68
2023/12/10 10:25:56;;;;;;;2.13;0.98;;;;;;;-0.11;100.00;100671.22;10456573;28;20306;-68
2023/12/10 10:30:57;;;;;;;1.63;0.47;;;;;;;0.18;100.00;100726.09;10457166;28;20079;-68
2023/12/10 10:35:59;;;;;;;3.50;0.70;;;;;;;0.45;100.00;100760.19;10456789;28;20049;-68
2023/12/10 10:41:01;;;;;;;5.28;0.80;;;;;;;0.47;100.00;100773.16;10456023;28;20037;-68
2023/12/10 10:46:02;;;;;;;1.48;0.32;;;;;;;0.59;100.00;100793.31;10455660;28;20049;-68
2023/12/10 10:51:03;;;;;;;1.75;0.40;;;;;;;0.54;100.00;100797.97;10454384;28;20041;-69
2023/12/10 10:56:05;;;;;;;1.00;0.30;;;;;;;0.59;100.00;100827.31;10456179;28;20041;-68
2023/12/10 11:01:52;;;;;;;0.68;0.30;;;;;;;0.73;100.00;100845.63;10449662;28;20180;-69
2023/12/10 11:06:56;;;;;;;1.00;0.30;;;;;;;0.76;100.00;100863.75;10454974;28;20521;-69
2023/12/10 11:11:58;;;;;;;1.90;0.38;;;;;;;0.74;100.00;100883.91;10455011;28;20499;-69
2023/12/10 11:17:04;;;;;;;0.98;0.47;;;;;;;0.77;100.00;100867.19;10451058;28;20041;-69
2023/12/10 11:22:08;;;;;;;4.55;0.90;;;;;;;0.69;100.00;100836.31;10408134;28;20410;-69
2023/12/10 11:27:11;;;;;;;6.53;1.10;;;;;;;0.53;100.00;100832.91;10389989;28;20034;-70
2023/12/10 11:32:12;;;;;;;1.70;0.60;;;;;;;0.34;100.00;100822.72;10403175;28;20045;-70
2023/12/10 11:37:12;;;;;;;1.27;0.55;;;;;;;0.34;100.00;100820.09;10404809;28;20037;-69
2023/12/10 11:42:13;;;;;;;1.08;0.40;;;;;;;0.36;100.00;100819.09;10401340;28;20508;-70
2023/12/10 11:47:14;;;;;;;1.27;0.63;;;;;;;0.66;100.00;100876.53;10404478;28;20034;-70
2023/12/10 11:52:15;;;;;;;2.78;1.00;;;;;;;0.40;100.00;100845.88;10399462;28;20034;-70
2023/12/10 11:57:16;;;;;;;3.47;1.00;;;;;;;0.50;100.00;100873.13;10404527;28;20041;-70
2023/12/10 12:02:17;;;;;;;3.60;0.68;;;;;;;0.42;100.00;100881.44;10418002;28;20046;-70
2023/12/10 12:07:28;;;;;;;1.90;0.50;;;;;;;0.09;100.00;100833.75;10418103;28;20073;-71
2023/12/10 12:12:29;;;;;;;2.83;0.80;;;;;;;0.40;100.00;100890.31;10400620;28;20073;-71
2023/12/10 12:17:30;;;;;;;1.98;0.50;;;;;;;0.06;100.00;100852.19;10401219;28;20045;-71
2023/12/10 12:22:31;;;;;;;1.70;0.40;;;;;;;0.33;100.00;100902.03;10412369;28;20144;-71
2023/12/10 12:27:32;;;;;;;1.42;0.30;;;;;;;0.26;100.00;100898.09;10416090;28;20049;-71
2023/12/10 12:32:33;;;;;;;1.83;0.28;;;;;;;0.20;100.00;100904.50;10403745;28;20398;-71
2023/12/10 12:37:34;;;;;;;6.20;0.50;;;;;;;-0.39;100.00;100818.19;10426759;28;20092;-71
2023/12/10 12:42:34;;;;;;;0.55;0.15;;;;;;;0.14;100.00;100931.81;10432298;28;20100;-72
2023/12/10 12:47:35;;;;;;;0.65;0.20;;;;;;;0.15;100.00;100941.38;10426274;28;20468;-73
2023/12/10 12:52:36;;;;;;;1.60;0.20;;;;;;;0.21;100.00;100958.47;10434118;28;20493;-72
2023/12/10 12:57:37;;;;;;;0.55;0.20;;;;;;;0.10;100.00;100945.16;10421215;28;20433;-72
2023/12/10 13:02:38;;;;;;;3.88;0.47;;;;;;;0.26;100.00;100969.47;10422549;28;20056;-71
2023/12/10 13:07:40;;;;;;;2.22;0.40;;;;;;;0.28;100.00;100970.25;10447063;28;20038;-70
2023/12/10 13:12:42;;;;;;;2.63;0.73;;;;;;;-0.25;100.00;100893.94;10444764;28;20045;-71
2023/12/10 13:17:42;;;;;;;2.45;0.52;;;;;;;0.13;100.00;100958.88;10425266;28;20041;-70
2023/12/10 13:22:43;;;;;;;2.47;0.55;;;;;;;0.32;100.00;100982.19;10393810;28;20061;-70
2023/12/10 13:27:44;;;;;;;1.25;0.35;;;;;;;0.12;100.00;100959.81;10396314;28;20037;-69
2023/12/10 13:32:45;;;;;;;0.77;0.30;;;;;;;0.16;100.00;100986.63;10405460;28;20046;-71
2023/12/10 13:37:45;;;;;;;0.80;0.30;;;;;;;0.18;100.00;101009.13;10403897;28;20037;-70
2023/12/10 13:42:46;;;;;;;3.75;0.70;;;;;;;0.12;100.00;101021.66;10393352;28;20184;-69
2023/12/10 13:47:47;;;;;;;2.85;0.95;;;;;;;-0.19;100.00;100970.28;10414845;28;20143;-70
2023/12/10 13:52:49;;;;;;;4.05;1.00;;;;;;;0.16;100.00;101038.88;10397356;28;20045;-70
2023/12/10 13:57:50;;;;;;;2.85;0.70;;;;;;;0.11;100.00;101046.09;10396635;28;20136;-72
2023/12/10 14:02:51;;;;;;;1.58;0.50;;;;;;;0.06;100.00;101051.59;10415872;28;20067;-69
2023/12/10 14:07:52;;;;;;;5.13;1.13;;;;;;;-0.01;100.00;101050.22;10416500;28;20512;-72
2023/12/10 14:12:52;;;;;;;2.42;0.85;;;;;;;-0.30;100.00;101000.44;10414348;28;20044;-71
2023/12/10 14:17:54;;;;;;;2.22;0.70;;;;;;;-0.08;100.00;101052.34;10415796;28;20041;-70
2023/12/10 14:22:55;;;;;;;1.63;0.63;;;;;;;-0.28;100.00;101031.66;10428462;28;20092;-71
2023/12/10 14:27:56;;;;;;;2.20;0.70;;;;;;;-0.50;100.00;101011.91;10426011;28;20037;-70
2023/12/10 14:32:57;;;;;;;2.17;0.85;;;;;;;-0.16;100.00;101096.28;10456924;28;20055;-70
2023/12/10 14:37:58;;;;;;;12.65;2.83;;;;;;;-0.07;100.00;101093.19;10456363;28;20436;-70
2023/12/10 14:42:59;;;;;;;3.00;0.90;;;;;;;-0.09;100.00;101102.03;10455689;28;20052;-71
2023/12/10 14:47:59;;;;;;;1.10;0.50;;;;;;;-0.26;100.00;101115.97;10435507;28;20568;-70
2023/12/10 14:53:00;;;;;;;2.58;0.63;;;;;;;-0.27;100.00;101114.28;10415210;28;20049;-70
2023/12/10 14:58:01;;;;;;;2.33;0.90;;;;;;;-0.20;100.00;101144.38;10414902;28;20033;-70
2023/12/10 15:03:02;;;;;;;4.35;1.08;;;;;;;-0.42;100.00;101099.41;10413976;28;20041;-70
2023/12/10 15:08:03;;;;;;;2.88;0.75;;;;;;;-0.26;100.00;101150.75;10413020;28;20041;-71
2023/12/10 15:13:04;;;;;;;1.50;0.52;;;;;;;-0.37;100.00;101160.06;10411743;28;20060;-68
2023/12/10 15:18:05;;;;;;;1.23;0.40;;;;;;;-0.48;100.00;101158.84;10410599;28;20500;-68
2023/12/10 15:23:06;;;;;;;1.55;0.68;;;;;;;-0.59;100.00;101147.25;10412265;28;20505;-67
2023/12/10 15:28:07;;;;;;;2.28;0.70;;;;;;;-0.46;100.00;101164.81;10412771;28;20056;-70
2023/12/10 15:33:08;;;;;;;3.25;1.20;;;;;;;-0.76;100.00;101137.66;10413446;28;20045;-69
2023/12/10 15:38:09;;;;;;;4.15;1.20;;;;;;;-0.44;100.00;101185.63;10416058;28;20032;-70
2023/12/10 15:43:09;;;;;;;3.47;1.45;;;;;;;-0.39;100.00;101181.03;10417749;28;20049;-69
2023/12/10 15:48:10;;;;;;;2.72;1.27;;;;;;;-0.65;100.00;101129.31;10411887;28;20038;-70
2023/12/10 15:53:11;;;;;;;1.83;1.05;;;;;;;-0.50;100.00;101189.41;10412873;28;20101;-72
2023/12/10 15:58:12;;;;;;;2.53;1.20;;;;;;;-0.49;100.00;101192.84;10438823;28;20033;-70
2023/12/10 16:03:13;;;;;;;5.72;1.60;;;;;;;-0.69;100.00;101180.78;10463158;28;20033;-69
2023/12/10 16:08:14;;;;;;;4.15;1.65;;;;;;;-0.59;100.00;101210.72;10462023;28;20405;-68
2023/12/10 16:13:15;;;;;;;2.08;1.23;;;;;;;-0.52;100.00;101206.06;10461363;28;20047;-67
2023/12/10 16:18:15;;;;;;;3.40;1.17;;;;;;;-0.53;100.00;101213.03;10459601;28;20115;-69
2023/12/10 16:23:16;;;;;;;1.98;1.05;;;;;;;-0.55;100.00;101214.88;10441558;28;20417;-70
2023/12/10 16:28:17;;;;;;;3.05;1.50;;;;;;;-0.54;100.00;101229.63;10431410;28;20045;-69
2023/12/10 16:33:20;;;;;;;2.95;1.45;;;;;;;-0.85;100.00;101165.03;10421289;28;20425;-69
2023/12/10 16:38:21;;;;;;;2.58;1.20;;;;;;;-0.56;100.00;101228.84;10434341;28;20116;-69
2023/12/10 16:43:22;;;;;;;3.80;1.50;;;;;;;-0.59;100.00;101229.00;10454482;28;20551;-70
2023/12/10 16:48:24;;;;;;;2.00;1.10;;;;;;;-0.52;100.00;101237.38;10436009;28;20045;-68
2023/12/10 16:53:25;;;;;;;2.38;1.10;;;;;;;-0.50;100.00;101244.22;10419395;28;20037;-69
2023/12/10 16:58:26;;;;;;;3.50;1.60;;;;;;;-0.79;100.00;101198.66;10427182;28;20045;-69
2023/12/10 17:03:27;;;;;;;5.20;1.92;;;;;;;-0.51;100.00;101259.94;10459407;28;20044;-68
2023/12/10 17:08:28;;;;;;;6.15;1.73;;;;;;;-0.48;100.00;101246.72;10459874;28;20075;-68
2023/12/10 17:13:28;;;;;;;4.60;1.98;;;;;;;-0.41;100.00;101268.19;10458155;28;20516;-68
2023/12/10 17:18:29;;;;;;;5.93;1.95;;;;;;;-0.52;100.00;101272.13;10458777;28;20044;-68
2023/12/10 17:23:30;;;;;;;4.50;1.80;;;;;;;-0.62;100.00;101260.47;10459669;28;20063;-68
2023/12/10 17:28:31;;;;;;;4.20;1.83;;;;;;;-0.57;100.00;101270.66;10459729;28;20084;-68
2023/12/10 17:33:31;;;;;;;6.70;2.30;;;;;;;-0.64;100.00;101267.50;10459150;28;20041;-68
2023/12/10 17:38:32;;;;;;;5.43;1.92;;;;;;;-0.67;100.00;101272.88;10458562;28;20037;-67
2023/12/10 17:43:33;;;;;;;5.00;2.13;;;;;;;-0.91;100.00;101238.38;10459307;28;20481;-68
2023/12/10 17:48:34;;;;;;;5.97;2.13;;;;;;;-0.74;100.00;101267.13;10458664;28;20595;-68
2023/12/10 17:53:35;;;;;;;9.48;2.60;;;;;;;-0.78;100.00;101288.19;10458484;28;20040;-68
2023/12/10 17:58:36;;;;;;;7.22;2.67;;;;;;;-0.78;100.00;101280.38;10458068;28;20135;-68
2023/12/10 18:03:37;;;;;;;13.10;2.47;;;;;;;-0.94;100.00;101275.03;10458100;28;20131;-68
2023/12/10 18:08:38;;;;;;;6.32;2.20;;;;;;;-1.09;100.00;101260.09;10457715;28;20039;-68
2023/12/10 18:13:39;;;;;;;5.32;2.10;;;;;;;-0.85;100.00;101307.66;10458238;28;20040;-68
2023/12/10 18:18:40;;;;;;;8.85;2.53;;;;;;;-0.88;100.00;101307.81;10456888;28;20051;-68
2023/12/10 18:23:40;;;;;;;5.75;2.08;;;;;;;-1.17;100.00;101263.91;10457180;28;20064;-68
2023/12/10 18:28:42;;;;;;;9.48;1.92;;;;;;;-0.89;100.00;101314.78;10458186;28;20052;-68
2023/12/10 18:33:43;;;;;;;6.15;2.03;;;;;;;-1.28;100.00;101262.72;10456490;28;20096;-68
2023/12/10 18:38:44;;;;;;;8.43;2.00;;;;;;;-0.95;100.00;101323.75;10456037;28;20069;-67
2023/12/10 18:43:45;;;;;;;7.43;2.45;;;;;;;-1.00;100.00;101343.97;10456000;28;20126;-68
2023/12/10 18:48:46;;;;;;;10.70;2.53;;;;;;;-0.82;100.00;101357.09;10454926;28;20041;-68
2023/12/10 18:53:46;;;;;;;9.55;2.00;;;;;;;-1.24;100.00;101292.94;10456003;28;20036;-68
2023/12/10 18:58:47;;;;;;;8.57;2.45;;;;;;;-1.12;100.00;101309.78;10456412;28;20067;-69
2023/12/10 19:03:48;;;;;;;10.30;2.28;;;;;;;-0.77;100.00;101369.00;10455747;28;20033;-70
2023/12/10 19:08:49;;;;;;;7.00;2.20;;;;;;;-0.81;100.00;101372.66;10456150;28;20053;-68
2023/12/10 19:13:49;;;;;;;9.85;2.22;;;;;;;-0.89;100.00;101364.34;10455925;28;20131;-69
2023/12/10 19:18:50;;;;;;;6.10;1.98;;;;;;;-0.86;100.00;101374.66;10454975;28;20033;-69
2023/12/10 19:23:51;;;;;;;14.60;2.70;;;;;;;-0.84;100.00;101370.19;10453577;28;20052;-69
2023/12/10 19:28:52;;;;;;;7.80;2.40;;;;;;;-1.56;100.00;101258.69;10454540;28;20052;-69
2023/12/10 19:33:52;;;;;;;9.43;2.10;;;;;;;-0.97;100.00;101369.06;10454074;28;20040;-69
2023/12/10 19:38:53;;;;;;;11.10;2.60;;;;;;;-1.06;100.00;101351.22;10453845;28;20049;-69
2023/12/10 19:43:54;;;;;;;14.23;3.35;;;;;;;-1.05;100.00;101366.78;10454982;28;20090;-69
2023/12/10 19:48:55;;;;;;;15.02;3.00;;;;;;;-1.35;100.00;101329.03;10450282;28;20032;-69
2023/12/10 19:53:56;;;;;;;13.60;2.97;;;;;;;-1.17;100.00;101377.75;10442058;28;20041;-69
2023/12/10 19:58:57;;;;;;;13.30;3.30;;;;;;;-1.21;100.00;101389.25;10441486;28;20152;-69
2023/12/10 20:03:59;;;;;;;10.10;2.95;;;;;;;-1.22;100.00;101398.84;10452371;28;20143;-68
2023/12/10 20:09:00;;;;;;;12.63;3.15;;;;;;;-1.43;100.00;101351.09;10452851;28;20120;-68
2023/12/10 20:14:01;;;;;;;14.50;3.33;;;;;;;-1.01;100.00;101409.25;10441166;28;20052;-68
2023/12/10 20:19:03;;;;;;;13.02;2.75;;;;;;;-1.08;100.00;101413.84;10440046;28;20044;-68
2023/12/10 20:24:04;;;;;;;14.95;3.03;;;;;;;-1.48;100.00;101360.84;10452861;28;20065;-68
2023/12/10 20:29:05;;;;;;;14.45;3.42;;;;;;;-1.40;100.00;101384.84;10453642;28;20491;-68
2023/12/10 20:34:06;;;;;;;12.20;2.88;;;;;;;-1.07;100.00;101433.81;10453932;28;20048;-68
2023/12/10 20:39:07;;;;;;;11.75;3.65;;;;;;;-1.54;100.00;101374.16;10453984;28;20044;-68
2023/12/10 20:44:07;;;;;;;17.77;3.80;;;;;;;-1.29;100.00;101413.03;10452728;28;20037;-68
2023/12/10 20:49:08;;;;;;;16.52;4.07;;;;;;;-1.27;100.00;101419.03;10459698;28;20045;-68
2023/12/10 20:54:09;;;;;;;18.73;4.10;;;;;;;-1.37;100.00;101412.53;10460417;28;20041;-67
2023/12/10 20:59:10;;;;;;;16.70;3.97;;;;;;;-1.42;100.00;101430.13;10460237;28;20420;-67
2023/12/10 21:04:11;;;;;;;13.18;3.40;;;;;;;-1.36;100.00;101429.00;10460417;28;20036;-67
2023/12/10 21:09:12;;;;;;;12.68;3.20;;;;;;;-1.35;100.00;101434.16;10459172;28;20124;-67
2023/12/10 21:14:13;;;;;;;8.93;2.60;;;;;;;-1.30;100.00;101437.41;10459950;28;20037;-68
2023/12/10 21:19:15;;;;;;;12.10;3.40;;;;;;;-1.49;100.00;101411.28;10459353;28;20102;-68
2023/12/10 21:24:17;;;;;;;9.30;2.60;;;;;;;-1.40;100.00;101443.94;10459953;28;20067;-68
2023/12/10 21:29:18;;;;;;;12.45;3.03;;;;;;;-1.41;100.00;101447.44;10458976;28;20047;-68
2023/12/10 21:34:19;;;;;;;16.08;3.58;;;;;;;-1.42;100.00;101451.81;10458668;28;20051;-68
2023/12/10 21:39:19;;;;;;;13.95;2.83;;;;;;;-1.46;100.00;101450.25;10459025;28;20033;-68
2023/12/10 21:44:20;;;;;;;21.70;4.30;;;;;;;-1.62;100.00;101444.81;10458512;28;20516;-68
2023/12/10 21:49:21;;;;;;;9.88;2.97;;;;;;;-1.71;100.00;101426.94;10458273;28;20413;-67
2023/12/10 21:54:24;;;;;;;22.85;5.20;;;;;;;-1.74;100.00;101447.91;10459130;28;20079;-67
2023/12/10 21:59:25;;;;;;;16.70;4.03;;;;;;;-1.77;100.00;101465.44;10457010;28;20073;-67
2023/12/10 22:04:26;;;;;;;16.55;4.30;;;;;;;-1.70;100.00;101461.69;10458293;28;20039;-67
2023/12/10 22:09:27;;;;;;;21.05;4.07;;;;;;;-1.70;100.00;101469.50;10457313;28;20143;-67
2023/12/10 22:14:28;;;;;;;11.98;3.42;;;;;;;-1.77;100.00;101476.69;10457766;28;20071;-67
2023/12/10 22:19:29;;;;;;;19.48;4.35;;;;;;;-1.86;100.00;101477.91;10457485;28;20044;-67
2023/12/10 22:24:30;;;;;;;12.80;3.42;;;;;;;-1.72;100.00;101495.59;10457027;28;20122;-67
2023/12/10 22:29:30;;;;;;;13.48;3.60;;;;;;;-2.10;100.00;101451.06;10457746;28;20051;-67
2023/12/10 22:34:31;;;;;;;23.27;3.85;;;;;;;-1.96;100.00;101488.75;10456237;28;20087;-67
2023/12/10 22:39:32;;;;;;;13.88;3.20;;;;;;;-1.91;100.00;101489.44;10456706;28;20055;-67
2023/12/10 22:44:33;;;;;;;16.52;3.17;;;;;;;-1.79;100.00;101495.91;10456413;28;20041;-68
2023/12/10 22:49:34;;;;;;;15.20;2.85;;;;;;;-1.61;100.00;101521.25;10455569;28;20045;-67
2023/12/10 22:54:34;;;;;;;12.07;3.22;;;;;;;-1.68;100.00;101510.19;10455545;28;20037;-67